Time;durP1;ratioP1;P1;durP2;ratioP2;P2;SDS_P1;SDS_P2;PMS_P1;PMS_P2;Temp;Humidity;BMP_temperature;BMP_pressure;BME280_temperature;BME280_humidity;BME280_pressure;Samples;Min_cycle;Max_cycle;Signal;HPM_P1;HPM_P2
2022/10/16 00:01:33;;;;;;;4.83;0.60;;;;;;;17.37;100.00;100342.19;5031508;28;20205;-62
2022/10/16 00:04:01;;;;;;;3.30;0.70;;;;;;;17.30;100.00;100346.69;5035341;28;20729;-63
2022/10/16 00:06:31;;;;;;;1.80;0.50;;;;;;;17.24;100.00;100342.91;5033637;28;20729;-62
2022/10/16 00:08:59;;;;;;;2.50;0.40;;;;;;;17.24;100.00;100342.09;5034565;28;20261;-61
2022/10/16 00:11:29;;;;;;;0.80;0.50;;;;;;;17.23;100.00;100346.66;5035836;28;20608;-62
2022/10/16 00:13:59;;;;;;;1.87;0.37;;;;;;;17.22;100.00;100350.34;5039283;28;20227;-62
2022/10/16 00:16:27;;;;;;;1.90;0.70;;;;;;;17.20;100.00;100347.03;5041116;28;20881;-61
2022/10/16 00:18:55;;;;;;;0.87;0.30;;;;;;;17.23;100.00;100345.81;5039075;28;20229;-62
2022/10/16 00:21:25;;;;;;;1.10;0.47;;;;;;;17.28;100.00;100348.72;5032866;28;20259;-63
2022/10/16 00:23:56;;;;;;;1.27;0.40;;;;;;;17.27;100.00;100352.44;5045184;28;20266;-63
2022/10/16 00:26:24;;;;;;;0.90;0.30;;;;;;;17.29;100.00;100358.44;5035154;28;20666;-61
2022/10/16 00:28:52;;;;;;;0.60;0.30;;;;;;;17.25;100.00;100343.75;5042477;28;20223;-62
2022/10/16 00:31:22;;;;;;;0.57;0.30;;;;;;;17.22;100.00;100349.50;5035994;28;20215;-62
2022/10/16 00:33:50;;;;;;;1.73;0.50;;;;;;;17.22;100.00;100365.59;5030203;28;20240;-61
2022/10/16 00:36:20;;;;;;;1.80;0.80;;;;;;;17.26;100.00;100364.16;5039901;28;20208;-61
2022/10/16 00:38:52;;;;;;;0.80;0.50;;;;;;;17.30;100.00;100357.41;5033557;28;20682;-62
2022/10/16 00:41:23;;;;;;;1.10;0.60;;;;;;;17.30;100.00;100354.72;5035360;28;20657;-63
2022/10/16 00:43:52;;;;;;;1.83;0.60;;;;;;;17.29;100.00;100361.09;5032997;28;20216;-62
2022/10/16 00:46:22;;;;;;;1.87;0.60;;;;;;;17.29;100.00;100359.25;5044810;28;20231;-61
2022/10/16 00:48:55;;;;;;;0.80;0.60;;;;;;;17.30;100.00;100368.97;5038526;28;20208;-62
2022/10/16 00:51:26;;;;;;;1.40;0.63;;;;;;;17.31;100.00;100369.78;5034687;28;20216;-62
2022/10/16 00:53:54;;;;;;;1.47;0.60;;;;;;;17.32;100.00;100360.72;5038046;28;20255;-63
2022/10/16 00:56:23;;;;;;;4.40;0.73;;;;;;;17.34;100.00;100361.34;5042400;28;20208;-61
2022/10/16 00:58:50;;;;;;;2.03;0.80;;;;;;;17.33;100.00;100357.00;5041834;28;20286;-62
2022/10/16 01:01:18;;;;;;;3.00;0.70;;;;;;;17.37;100.00;100363.66;5036209;28;20212;-62
2022/10/16 01:03:46;;;;;;;1.77;0.67;;;;;;;17.39;100.00;100358.94;5041336;28;20220;-63
2022/10/16 01:06:24;;;;;;;5.40;0.77;;;;;;;17.33;100.00;100370.41;5034856;28;20209;-61
2022/10/16 01:09:12;;;;;;;1.23;0.50;;;;;;;17.27;100.00;100373.88;5031872;28;20201;-63
2022/10/16 01:11:50;;;;;;;1.10;0.60;;;;;;;17.26;100.00;100364.16;5035824;28;20216;-63
2022/10/16 01:14:23;;;;;;;1.13;0.70;;;;;;;17.22;100.00;100354.88;5034184;28;20573;-62
2022/10/16 01:16:58;;;;;;;1.60;0.67;;;;;;;17.25;100.00;100359.81;5031838;28;20332;-62
2022/10/16 01:19:41;;;;;;;2.17;0.53;;;;;;;17.20;100.00;100360.44;5041671;28;20724;-62
2022/10/16 01:22:10;;;;;;;2.43;0.70;;;;;;;17.22;100.00;100374.47;5036830;28;20248;-62
2022/10/16 01:24:40;;;;;;;2.20;0.70;;;;;;;17.21;100.00;100364.75;5036135;28;20219;-62
2022/10/16 01:27:13;;;;;;;3.63;0.77;;;;;;;17.18;100.00;100367.81;5041272;28;20215;-62
2022/10/16 01:29:50;;;;;;;0.77;0.57;;;;;;;17.20;100.00;100370.31;5037330;28;20215;-63
2022/10/16 01:32:24;;;;;;;1.33;0.70;;;;;;;17.15;100.00;100368.19;5038569;28;20204;-62
2022/10/16 01:34:55;;;;;;;2.60;0.93;;;;;;;17.12;100.00;100375.81;5044090;28;20204;-63
2022/10/16 01:37:32;;;;;;;0.97;0.60;;;;;;;17.13;100.00;100380.16;5038686;28;20305;-64
2022/10/16 01:40:03;;;;;;;2.37;0.70;;;;;;;17.12;100.00;100389.22;5036274;28;20216;-63
2022/10/16 01:42:38;;;;;;;1.40;0.80;;;;;;;17.12;100.00;100389.22;5038213;28;20266;-62
2022/10/16 01:45:11;;;;;;;4.33;1.20;;;;;;;17.13;100.00;100394.38;5043643;28;20208;-63
2022/10/16 01:47:39;;;;;;;6.23;1.00;;;;;;;17.13;100.00;100390.88;5035107;28;20674;-62
2022/10/16 01:50:09;;;;;;;3.67;0.90;;;;;;;17.14;100.00;100369.25;5031786;28;20209;-63
2022/10/16 01:52:41;;;;;;;4.47;0.90;;;;;;;17.19;100.00;100360.59;5035222;28;20219;-63
2022/10/16 01:55:11;;;;;;;1.20;0.60;;;;;;;17.16;100.00;100375.22;5033729;28;20213;-63
2022/10/16 01:57:45;;;;;;;3.07;1.10;;;;;;;17.13;100.00;100377.47;5039668;28;20211;-63
2022/10/16 02:00:17;;;;;;;5.47;1.10;;;;;;;17.12;100.00;100375.81;5033497;28;20208;-64
2022/10/16 02:02:49;;;;;;;1.67;0.90;;;;;;;17.11;100.00;100379.50;5036225;28;20231;-63
2022/10/16 02:05:23;;;;;;;7.63;1.33;;;;;;;17.13;100.00;100372.94;5033379;28;20215;-62
2022/10/16 02:07:51;;;;;;;4.37;0.97;;;;;;;17.10;100.00;100378.69;5043151;28;20217;-65
2022/10/16 02:10:19;;;;;;;4.63;0.90;;;;;;;17.12;100.00;100365.09;5042132;28;20224;-63
2022/10/16 02:12:54;;;;;;;1.93;0.80;;;;;;;17.12;100.00;100365.09;5034300;28;20520;-64
2022/10/16 02:15:22;;;;;;;2.20;0.97;;;;;;;17.12;100.00;100373.97;5035074;28;20230;-65
2022/10/16 02:17:49;;;;;;;2.13;1.17;;;;;;;17.12;100.00;100373.97;5035347;28;20740;-63
2022/10/16 02:20:18;;;;;;;1.87;1.00;;;;;;;17.14;100.00;100374.59;5034513;28;20243;-63
2022/10/16 02:22:49;;;;;;;1.43;0.90;;;;;;;17.16;100.00;100377.06;5034719;28;20248;-63
2022/10/16 02:25:23;;;;;;;4.57;1.00;;;;;;;17.16;100.00;100382.41;5035709;28;20212;-63
2022/10/16 02:27:56;;;;;;;3.23;1.10;;;;;;;17.16;100.00;100377.06;5041561;28;20209;-62
2022/10/16 02:30:28;;;;;;;2.23;1.00;;;;;;;17.13;100.00;100385.50;5039795;28;20223;-64
2022/10/16 02:32:57;;;;;;;2.30;1.20;;;;;;;17.17;100.00;100382.22;5035197;28;20212;-63
2022/10/16 02:35:26;;;;;;;1.83;1.20;;;;;;;17.17;100.00;100384.09;5035525;28;20646;-62
2022/10/16 02:37:56;;;;;;;2.80;1.50;;;;;;;17.15;100.00;100386.16;5034516;28;20212;-62
2022/10/16 02:40:25;;;;;;;3.87;1.43;;;;;;;17.20;100.00;100381.03;5042280;28;20679;-64
2022/10/16 02:42:55;;;;;;;4.03;1.30;;;;;;;17.20;100.00;100383.72;5032378;28;20209;-63
2022/10/16 02:45:23;;;;;;;3.33;1.37;;;;;;;17.17;100.00;100378.72;5036192;28;20212;-62
2022/10/16 02:47:51;;;;;;;3.23;1.50;;;;;;;17.17;100.00;100384.91;5039681;28;20212;-62
2022/10/16 02:50:19;;;;;;;3.13;1.30;;;;;;;17.19;100.00;100382.03;5034313;28;20209;-62
2022/10/16 02:52:47;;;;;;;3.37;1.37;;;;;;;17.24;100.00;100387.63;5030689;28;20229;-63
2022/10/16 02:55:14;;;;;;;4.93;1.80;;;;;;;17.23;100.00;100399.41;5038803;28;20273;-63
2022/10/16 02:57:42;;;;;;;4.00;1.67;;;;;;;17.26;100.00;100401.69;5035655;28;20239;-64
2022/10/16 03:00:14;;;;;;;5.33;2.03;;;;;;;17.32;100.00;100382.19;5035105;28;20286;-63
2022/10/16 03:02:42;;;;;;;6.10;2.20;;;;;;;17.29;100.00;100378.03;5034884;28;20212;-62
2022/10/16 03:05:11;;;;;;;3.50;1.83;;;;;;;17.23;100.00;100386.00;5043742;28;20207;-62
2022/10/16 03:07:38;;;;;;;5.30;2.03;;;;;;;17.23;100.00;100394.88;5037471;28;20220;-63
2022/10/16 03:10:07;;;;;;;4.33;1.83;;;;;;;17.25;100.00;100397.34;5035206;28;20208;-63
2022/10/16 03:12:35;;;;;;;7.70;2.53;;;;;;;17.29;100.00;100386.06;5043998;28;20231;-63
2022/10/16 03:15:03;;;;;;;4.60;2.67;;;;;;;17.32;100.00;100389.38;5033504;28;20676;-65
2022/10/16 03:17:32;;;;;;;4.73;2.83;;;;;;;17.32;100.00;100398.25;5037760;28;20220;-63
2022/10/16 03:20:00;;;;;;;5.70;2.60;;;;;;;17.27;100.00;100396.13;5036202;28;20224;-63
2022/10/16 03:22:28;;;;;;;7.80;2.80;;;;;;;17.28;100.00;100399.66;5034940;28;20236;-63
2022/10/16 03:24:56;;;;;;;6.27;2.73;;;;;;;17.28;100.00;100403.16;5033210;28;20208;-64
2022/10/16 03:27:23;;;;;;;5.87;2.63;;;;;;;17.33;100.00;100407.13;5040435;28;20204;-63
2022/10/16 03:29:52;;;;;;;6.00;3.13;;;;;;;17.38;100.00;100407.34;5035217;28;20212;-63
2022/10/16 03:32:19;;;;;;;5.97;2.80;;;;;;;17.41;100.00;100409.66;5034724;28;20235;-63
2022/10/16 03:34:49;;;;;;;7.67;3.50;;;;;;;17.40;100.00;100408.84;5037919;28;20652;-63
2022/10/16 03:37:16;;;;;;;4.77;2.80;;;;;;;17.36;100.00;100415.59;5034487;28;20236;-63
2022/10/16 03:39:44;;;;;;;10.70;3.27;;;;;;;17.39;100.00;100419.75;5033280;28;20285;-63
2022/10/16 03:42:12;;;;;;;7.40;3.00;;;;;;;17.41;100.00;100413.19;5034389;28;20204;-62
2022/10/16 03:44:40;;;;;;;7.10;3.00;;;;;;;17.43;100.00;100424.50;5034890;28;20216;-63
2022/10/16 03:47:07;;;;;;;5.87;3.10;;;;;;;17.41;100.00;100423.06;5037754;28;20728;-63
2022/10/16 03:49:35;;;;;;;11.37;3.40;;;;;;;17.39;100.00;100412.53;5039923;28;20253;-61
2022/10/16 03:52:04;;;;;;;7.63;3.30;;;;;;;17.36;100.00;100422.81;5030375;28;20212;-62
2022/10/16 03:54:32;;;;;;;7.13;3.40;;;;;;;17.34;100.00;100422.97;5031239;28;20217;-61
2022/10/16 03:56:59;;;;;;;5.80;3.27;;;;;;;17.31;100.00;100415.34;5036680;28;20820;-63
2022/10/16 03:59:27;;;;;;;10.13;3.20;;;;;;;17.26;100.00;100407.03;5037998;28;20281;-63
2022/10/16 04:01:55;;;;;;;4.60;3.27;;;;;;;17.24;100.00;100411.75;5042885;28;20262;-62
2022/10/16 04:04:22;;;;;;;5.53;3.30;;;;;;;17.24;100.00;100422.47;5035713;28;20208;-63
2022/10/16 04:06:50;;;;;;;4.47;2.80;;;;;;;17.24;100.00;100422.47;5034103;28;20212;-62
2022/10/16 04:09:19;;;;;;;5.17;3.00;;;;;;;17.23;100.00;100410.13;5042825;28;20207;-62
2022/10/16 04:11:47;;;;;;;9.87;3.23;;;;;;;17.19;100.00;100407.00;5041234;28;20204;-62
2022/10/16 04:14:14;;;;;;;7.73;3.07;;;;;;;17.16;100.00;100409.22;5037243;28;20724;-62
2022/10/16 04:16:42;;;;;;;5.30;3.10;;;;;;;17.19;100.00;100424.91;5035536;28;20374;-61
2022/10/16 04:19:10;;;;;;;7.57;3.40;;;;;;;17.16;100.00;100417.25;5036871;28;20282;-62
2022/10/16 04:21:38;;;;;;;4.50;3.10;;;;;;;17.13;100.00;100423.84;5038887;28;20212;-62
2022/10/16 04:24:06;;;;;;;5.47;3.27;;;;;;;17.15;100.00;100416.41;5035046;28;20201;-62
2022/10/16 04:26:35;;;;;;;11.40;3.30;;;;;;;17.17;100.00;100418.91;5044172;28;20224;-62
2022/10/16 04:29:02;;;;;;;11.67;3.60;;;;;;;17.14;100.00;100436.22;5043528;28;20209;-61
2022/10/16 04:31:30;;;;;;;5.03;2.77;;;;;;;17.19;100.00;100438.31;5043005;28;20215;-62
2022/10/16 04:33:58;;;;;;;9.17;2.73;;;;;;;17.23;100.00;100442.28;5043792;28;20216;-63
2022/10/16 04:36:25;;;;;;;4.30;2.80;;;;;;;17.21;100.00;100442.47;5035354;28;20207;-63
2022/10/16 04:38:55;;;;;;;5.50;3.00;;;;;;;17.19;100.00;100430.28;5040324;28;20208;-62
2022/10/16 04:41:23;;;;;;;7.83;3.07;;;;;;;17.19;100.00;100425.75;5032886;28;20302;-63
2022/10/16 04:43:52;;;;;;;7.37;2.87;;;;;;;17.21;100.00;100417.53;5036184;28;20216;-63
2022/10/16 04:46:20;;;;;;;4.07;2.50;;;;;;;17.15;100.00;100413.75;5043301;28;20244;-63
2022/10/16 04:48:47;;;;;;;5.57;3.27;;;;;;;17.11;100.00;100417.84;5048314;28;20670;-63
2022/10/16 04:51:15;;;;;;;9.03;3.10;;;;;;;17.08;100.00;100425.41;5038573;28;20964;-62
2022/10/16 04:53:43;;;;;;;12.20;2.77;;;;;;;17.10;100.00;100418.03;5040588;28;20226;-63
2022/10/16 04:56:10;;;;;;;5.27;2.90;;;;;;;17.05;100.00;100415.09;5037355;28;20355;-63
2022/10/16 04:58:38;;;;;;;5.97;3.47;;;;;;;17.00;100.00;100404.13;5037850;28;20219;-63
2022/10/16 05:01:07;;;;;;;8.63;3.33;;;;;;;17.01;100.00;100400.44;5041700;28;20228;-62
2022/10/16 05:03:35;;;;;;;7.20;3.20;;;;;;;17.01;100.00;100411.13;5041908;28;20216;-61
2022/10/16 05:06:03;;;;;;;7.60;3.20;;;;;;;17.01;100.00;100416.50;5042851;28;20208;-60
2022/10/16 05:08:31;;;;;;;9.83;3.50;;;;;;;17.03;100.00;100411.78;5035869;28;20235;-61
2022/10/16 05:10:59;;;;;;;6.80;3.27;;;;;;;17.04;100.00;100410.78;5036102;28;20794;-61
2022/10/16 05:13:27;;;;;;;6.30;3.13;;;;;;;17.03;100.00;100409.94;5035819;28;20232;-62
2022/10/16 05:15:55;;;;;;;7.53;3.33;;;;;;;17.05;100.00;100415.09;5037566;28;20208;-61
2022/10/16 05:18:24;;;;;;;6.77;3.53;;;;;;;17.09;100.00;100413.69;5037382;28;20580;-62
2022/10/16 05:20:51;;;;;;;6.37;3.00;;;;;;;17.08;100.00;100418.22;5035264;28;20251;-62
2022/10/16 05:23:19;;;;;;;6.10;3.10;;;;;;;17.07;100.00;100413.88;5037838;28;20232;-62
2022/10/16 05:25:54;;;;;;;7.50;3.23;;;;;;;17.10;100.00;100415.34;5040315;28;20208;-62
2022/10/16 05:28:22;;;;;;;9.73;2.90;;;;;;;17.16;100.00;100425.28;5039944;28;20207;-62
2022/10/16 05:30:50;;;;;;;7.97;2.80;;;;;;;17.17;100.00;100437.66;5038959;28;20213;-62
2022/10/16 05:33:17;;;;;;;7.50;2.87;;;;;;;17.16;100.00;100436.00;5038110;28;20234;-61
2022/10/16 05:35:46;;;;;;;4.77;2.83;;;;;;;17.17;100.00;100448.38;5040788;28;20822;-61
2022/10/16 05:38:14;;;;;;;4.00;2.70;;;;;;;17.20;100.00;100450.69;5034910;28;20216;-62
2022/10/16 05:40:42;;;;;;;5.87;3.20;;;;;;;17.23;100.00;100461.03;5036847;28;20232;-62
2022/10/16 05:43:09;;;;;;;4.70;2.90;;;;;;;17.25;100.00;100456.28;5036975;28;20209;-61
2022/10/16 05:45:37;;;;;;;4.60;3.10;;;;;;;17.29;100.00;100455.75;5038903;28;20765;-61
2022/10/16 05:48:06;;;;;;;8.77;3.20;;;;;;;17.24;100.00;100462.69;5040825;28;20212;-61
2022/10/16 05:50:34;;;;;;;9.57;3.60;;;;;;;17.21;100.00;100466.59;5036766;28;20658;-60
2022/10/16 05:53:03;;;;;;;6.93;3.30;;;;;;;17.17;100.00;100459.09;5033777;28;20251;-60
2022/10/16 05:55:30;;;;;;;7.03;3.30;;;;;;;17.13;100.00;100463.22;5043506;28;20216;-62
2022/10/16 05:57:58;;;;;;;4.93;2.90;;;;;;;17.10;100.00;100472.44;5035584;28;20212;-62
2022/10/16 06:00:26;;;;;;;5.00;2.73;;;;;;;17.10;100.00;100468.94;5036936;28;20950;-63
2022/10/16 06:02:54;;;;;;;4.67;3.40;;;;;;;17.15;100.00;100472.69;5040925;28;20268;-62
2022/10/16 06:05:22;;;;;;;8.40;3.50;;;;;;;17.19;100.00;100486.53;5046637;28;20212;-62
2022/10/16 06:07:50;;;;;;;7.93;3.50;;;;;;;17.23;100.00;100490.53;5034980;28;20212;-63
2022/10/16 06:10:19;;;;;;;6.20;3.53;;;;;;;17.23;100.00;100495.88;5038922;28;20212;-64
2022/10/16 06:12:46;;;;;;;7.43;3.73;;;;;;;17.18;100.00;100487.56;5034245;28;20251;-62
2022/10/16 06:15:14;;;;;;;8.93;3.50;;;;;;;17.13;100.00;100490.00;5030373;28;20239;-63
2022/10/16 06:17:42;;;;;;;11.13;3.87;;;;;;;17.11;100.00;100481.31;5034868;28;20212;-61
2022/10/16 06:20:10;;;;;;;6.93;3.70;;;;;;;17.07;100.00;100472.81;5039649;28;20208;-63
2022/10/16 06:22:37;;;;;;;13.47;4.13;;;;;;;17.08;100.00;100473.66;5032870;28;20244;-62
2022/10/16 06:25:06;;;;;;;7.13;3.67;;;;;;;17.04;100.00;100483.09;5046773;28;20204;-63
2022/10/16 06:27:35;;;;;;;7.20;3.83;;;;;;;17.07;100.00;100504.13;5046745;28;20223;-63
2022/10/16 06:30:03;;;;;;;14.27;4.27;;;;;;;17.08;100.00;100501.25;5038285;28;20220;-62
2022/10/16 06:32:31;;;;;;;6.23;3.70;;;;;;;17.09;100.00;100489.53;5030005;28;20274;-63
2022/10/16 06:34:58;;;;;;;6.87;3.70;;;;;;;17.09;100.00;100489.53;5037713;28;20649;-64
2022/10/16 06:37:28;;;;;;;8.67;3.60;;;;;;;17.09;100.00;100494.06;5033386;28;20224;-66
2022/10/16 06:39:55;;;;;;;6.13;3.67;;;;;;;17.10;100.00;100504.59;5037376;28;20757;-61
2022/10/16 06:42:23;;;;;;;9.37;4.20;;;;;;;17.08;100.00;100508.47;5032470;28;20229;-63
2022/10/16 06:44:53;;;;;;;6.13;3.57;;;;;;;17.11;100.00;100518.81;5033954;28;20658;-63
2022/10/16 06:47:20;;;;;;;6.23;3.87;;;;;;;17.11;100.00;100518.81;5040889;28;20250;-63
2022/10/16 06:49:48;;;;;;;8.63;3.47;;;;;;;17.13;100.00;100506.91;5038826;28;20276;-63
2022/10/16 06:52:21;;;;;;;8.30;3.83;;;;;;;17.16;100.00;100516.38;5036193;28;20212;-63
2022/10/16 06:54:48;;;;;;;7.30;4.37;;;;;;;17.16;100.00;100521.75;5035379;28;20208;-63
2022/10/16 06:57:16;;;;;;;6.40;4.00;;;;;;;17.13;100.00;100522.16;5038910;28;20215;-62
2022/10/16 06:59:43;;;;;;;7.57;4.03;;;;;;;17.13;100.00;100524.81;5039045;28;20216;-62
2022/10/16 07:02:15;;;;;;;7.83;3.50;;;;;;;17.19;100.00;100524.06;5039026;28;20232;-63
2022/10/16 07:04:42;;;;;;;10.37;4.17;;;;;;;17.21;100.00;100535.44;5034228;28;20923;-61
2022/10/16 07:07:10;;;;;;;9.00;4.10;;;;;;;17.18;100.00;100535.78;5033547;28;20219;-63
2022/10/16 07:09:38;;;;;;;5.23;3.60;;;;;;;17.16;100.00;100544.00;5033018;28;20226;-64
2022/10/16 07:12:05;;;;;;;5.73;3.90;;;;;;;17.20;100.00;100542.63;5035012;28;20295;-63
2022/10/16 07:14:33;;;;;;;7.03;4.03;;;;;;;17.20;100.00;100544.47;5035531;28;20219;-62
2022/10/16 07:17:01;;;;;;;7.03;3.97;;;;;;;17.23;100.00;100544.13;5035501;28;20201;-63
2022/10/16 07:19:29;;;;;;;10.27;4.20;;;;;;;17.26;100.00;100552.59;5039173;28;20254;-61
2022/10/16 07:22:01;;;;;;;8.27;3.77;;;;;;;17.32;100.00;100547.50;5034486;28;20694;-64
2022/10/16 07:24:29;;;;;;;6.20;3.77;;;;;;;17.34;100.00;100551.63;5035362;28;20745;-62
2022/10/16 07:26:56;;;;;;;9.57;3.93;;;;;;;17.30;100.00;100551.19;5037498;28;20192;-62
2022/10/16 07:29:24;;;;;;;6.73;4.17;;;;;;;17.30;100.00;100561.94;5041486;28;20262;-62
2022/10/16 07:31:52;;;;;;;12.03;4.00;;;;;;;17.32;100.00;100572.47;5037047;28;20208;-61
2022/10/16 07:34:21;;;;;;;6.10;3.60;;;;;;;17.28;100.00;100563.13;5031397;28;20200;-62
2022/10/16 07:36:51;;;;;;;7.60;4.27;;;;;;;17.31;100.00;100576.16;5035560;28;20204;-63
2022/10/16 07:39:19;;;;;;;9.77;4.00;;;;;;;17.34;100.00;100573.06;5034408;28;20219;-61
2022/10/16 07:41:46;;;;;;;10.10;4.00;;;;;;;17.35;100.00;100574.75;5034504;28;20234;-63
2022/10/16 07:44:14;;;;;;;6.17;3.73;;;;;;;17.33;100.00;100575.97;5036901;28;20854;-63
2022/10/16 07:46:41;;;;;;;7.00;4.17;;;;;;;17.32;100.00;100577.00;5039719;28;20204;-62
2022/10/16 07:49:10;;;;;;;6.50;4.00;;;;;;;17.31;100.00;100584.19;5040034;28;20262;-63
2022/10/16 07:51:40;;;;;;;8.07;3.73;;;;;;;17.34;100.00;100597.19;5033917;28;20207;-63
2022/10/16 07:54:10;;;;;;;8.90;4.17;;;;;;;17.42;100.00;100597.09;5043469;28;20719;-63
2022/10/16 07:56:38;;;;;;;6.83;3.47;;;;;;;17.43;100.00;100592.56;5043407;28;20266;-63
2022/10/16 07:59:10;;;;;;;6.00;3.67;;;;;;;17.46;100.00;100593.03;5041953;28;20204;-63
2022/10/16 08:01:38;;;;;;;7.80;3.80;;;;;;;17.48;100.00;100601.72;5035051;28;20233;-63
2022/10/16 08:04:06;;;;;;;11.87;4.57;;;;;;;17.48;100.00;100599.03;5041605;28;20355;-62
2022/10/16 08:06:37;;;;;;;7.20;3.90;;;;;;;17.48;100.00;100616.97;5034246;28;20550;-62
2022/10/16 08:09:05;;;;;;;8.40;4.37;;;;;;;17.48;100.00;100615.09;5039419;28;20218;-62
2022/10/16 08:11:34;;;;;;;7.73;4.10;;;;;;;17.50;100.00;100621.09;5042147;28;20270;-62
2022/10/16 08:14:02;;;;;;;8.47;4.10;;;;;;;17.45;100.00;100618.16;5037830;28;20265;-61
2022/10/16 08:16:30;;;;;;;11.57;3.93;;;;;;;17.42;100.00;100628.41;5044411;28;20224;-62
2022/10/16 08:18:57;;;;;;;10.47;4.70;;;;;;;17.43;100.00;100636.28;5036207;28;20259;-62
2022/10/16 08:21:25;;;;;;;10.70;6.27;;;;;;;17.45;100.00;100644.97;5038680;28;20724;-62
2022/10/16 08:23:54;;;;;;;9.00;5.53;;;;;;;17.50;100.00;100671.22;5038888;28;20220;-63
2022/10/16 08:26:26;;;;;;;10.53;4.50;;;;;;;17.52;100.00;100693.28;5040427;28;20200;-62
2022/10/16 08:28:55;;;;;;;8.20;4.83;;;;;;;17.57;100.00;100688.22;5040857;28;20637;-62
2022/10/16 08:31:23;;;;;;;11.83;4.63;;;;;;;17.52;100.00;100672.69;5038449;28;20298;-61
2022/10/16 08:33:52;;;;;;;12.77;5.33;;;;;;;17.49;100.00;100665.03;5040707;28;20220;-63
2022/10/16 08:36:20;;;;;;;10.33;5.43;;;;;;;17.46;100.00;100662.72;5037021;28;20213;-63
2022/10/16 08:38:50;;;;;;;12.73;5.17;;;;;;;17.42;100.00;100652.53;5037706;28;20220;-63
2022/10/16 08:42:00;;;;;;;9.30;4.93;;;;;;;17.34;100.00;100664.22;5039776;28;20217;-63
2022/10/16 08:44:42;;;;;;;7.97;5.23;;;;;;;17.35;100.00;100676.59;5040298;28;20602;-63
2022/10/16 08:47:18;;;;;;;9.97;5.57;;;;;;;17.33;100.00;100681.31;5038449;28;20238;-60
2022/10/16 08:49:57;;;;;;;10.47;5.30;;;;;;;17.35;100.00;100673.91;5045181;28;20273;-63
2022/10/16 08:52:29;;;;;;;10.00;5.03;;;;;;;17.38;100.00;100681.59;5033246;28;20226;-64
2022/10/16 08:54:57;;;;;;;10.77;5.27;;;;;;;17.46;100.00;100675.28;5045007;28;20204;-63
2022/10/16 08:57:27;;;;;;;9.37;4.80;;;;;;;17.52;100.00;100670.00;5037520;28;20733;-62
2022/10/16 09:00:00;;;;;;;11.20;5.50;;;;;;;17.64;100.00;100667.69;5041767;28;20266;-63
2022/10/16 09:02:33;;;;;;;10.33;6.70;;;;;;;17.75;100.00;100680.63;5035257;28;20322;-63
2022/10/16 09:05:19;;;;;;;9.57;5.47;;;;;;;17.71;100.00;100691.91;5038863;28;20638;-62
2022/10/16 09:07:55;;;;;;;9.03;5.43;;;;;;;17.73;100.00;100695.22;5038316;28;20212;-62
2022/10/16 09:10:33;;;;;;;8.23;5.37;;;;;;;17.70;100.00;100704.47;5039726;28;20262;-63
2022/10/16 09:13:10;;;;;;;9.87;5.10;;;;;;;17.72;100.00;100701.63;5041497;28;20228;-61
2022/10/16 09:15:45;;;;;;;9.33;5.40;;;;;;;17.81;100.00;100693.28;5038008;28;20696;-64
2022/10/16 09:18:19;;;;;;;8.50;4.80;;;;;;;17.92;100.00;100692.78;5034695;28;20732;-62
2022/10/16 09:20:52;;;;;;;8.37;4.70;;;;;;;18.02;100.00;100695.97;5032339;28;20213;-63
2022/10/16 09:23:26;;;;;;;9.43;5.13;;;;;;;18.05;100.00;100710.84;5038645;28;20232;-62
2022/10/16 09:25:55;;;;;;;7.17;4.80;;;;;;;18.10;100.00;100704.91;5041833;28;20233;-62
2022/10/16 09:28:22;;;;;;;9.40;4.43;;;;;;;18.18;100.00;100702.13;5043289;28;20212;-64
2022/10/16 09:30:52;;;;;;;9.87;4.57;;;;;;;18.28;100.00;100700.78;5033099;28;20217;-63
2022/10/16 09:33:22;;;;;;;8.13;4.13;;;;;;;18.41;100.00;100700.03;5040108;28;20345;-62
2022/10/16 09:35:52;;;;;;;11.33;5.07;;;;;;;18.51;100.00;100702.41;5033262;28;20209;-63
2022/10/16 09:38:26;;;;;;;8.13;4.30;;;;;;;18.70;100.00;100709.81;5040043;28;20215;-62
2022/10/16 09:40:54;;;;;;;6.50;3.40;;;;;;;18.82;100.00;100719.00;5037411;28;20216;-62
2022/10/16 09:43:36;;;;;;;4.73;3.57;;;;;;;19.03;100.00;100718.09;5036905;28;20250;-63
2022/10/16 09:46:07;;;;;;;7.50;3.83;;;;;;;19.16;100.00;100716.34;5037191;28;20204;-63
2022/10/16 09:48:40;;;;;;;7.17;3.17;;;;;;;19.38;100.00;100714.38;5042685;28;20579;-63
2022/10/16 09:51:19;;;;;;;6.17;3.03;;;;;;;19.56;100.00;100711.19;5037705;28;20220;-64
2022/10/16 09:53:48;;;;;;;7.13;3.23;;;;;;;19.64;100.00;100712.84;5035806;28;20212;-63
2022/10/16 09:56:24;;;;;;;10.07;4.23;;;;;;;19.75;100.00;100718.50;5036824;28;20606;-62
2022/10/16 09:58:53;;;;;;;9.53;4.20;;;;;;;19.90;100.00;100708.41;5036798;28;20199;-62
2022/10/16 10:01:27;;;;;;;7.07;4.10;;;;;;;20.09;100.00;100717.56;5034784;28;20213;-64
2022/10/16 10:04:00;;;;;;;6.67;4.00;;;;;;;20.12;100.00;100716.31;5037270;28;20228;-63
2022/10/16 10:06:31;;;;;;;5.93;3.20;;;;;;;20.26;100.00;100713.44;5034123;28;20259;-62
2022/10/16 10:09:02;;;;;;;6.93;3.23;;;;;;;20.39;100.00;100720.75;5046461;28;20208;-62
2022/10/16 10:11:45;;;;;;;6.07;2.37;;;;;;;20.60;100.00;100717.00;5041628;28;20204;-64
2022/10/16 10:14:22;;;;;;;5.03;2.30;;;;;;;20.77;100.00;100720.09;5036146;28;20250;-63
2022/10/16 10:16:53;;;;;;;5.10;2.57;;;;;;;20.87;97.39;100726.72;5035330;28;20213;-62
2022/10/16 10:19:22;;;;;;;5.67;2.50;;;;;;;21.09;96.97;100730.03;5036127;28;20708;-61
2022/10/16 10:21:51;;;;;;;3.50;2.07;;;;;;;21.21;96.33;100733.75;5034509;28;20248;-61
2022/10/16 10:24:20;;;;;;;4.83;2.67;;;;;;;21.28;95.99;100729.19;5033545;28;20232;-63
2022/10/16 10:26:55;;;;;;;5.63;2.70;;;;;;;21.21;94.84;100722.97;5040244;28;20357;-63
2022/10/16 10:29:40;;;;;;;5.73;2.93;;;;;;;21.24;93.69;100722.56;5038099;28;20685;-64
2022/10/16 10:32:22;;;;;;;7.30;3.30;;;;;;;21.05;96.91;100728.78;5014767;28;20209;-63
2022/10/16 10:35:15;;;;;;;6.00;2.73;;;;;;;20.99;97.87;100733.16;5040544;28;20220;-64
2022/10/16 10:37:54;;;;;;;6.80;2.70;;;;;;;21.13;95.91;100739.34;5043633;28;20527;-63
2022/10/16 10:40:35;;;;;;;4.60;3.00;;;;;;;21.12;94.99;100734.97;5037082;28;20212;-63
2022/10/16 10:43:12;;;;;;;6.73;2.57;;;;;;;21.25;96.41;100729.63;5041271;28;20224;-62
2022/10/16 10:45:44;;;;;;;6.07;2.83;;;;;;;21.35;96.08;100730.00;5039696;28;20216;-63
2022/10/16 10:48:29;;;;;;;7.90;2.83;;;;;;;21.39;94.84;100725.81;5038100;28;20208;-63
2022/10/16 10:51:02;;;;;;;4.93;2.80;;;;;;;21.45;94.58;100717.94;5034296;28;20223;-63
2022/10/16 10:53:41;;;;;;;4.33;2.53;;;;;;;21.45;92.08;100717.94;5033758;28;20205;-61
2022/10/16 10:56:22;;;;;;;6.87;2.87;;;;;;;21.73;92.39;100724.66;5034278;28;20230;-62
2022/10/16 10:59:02;;;;;;;3.97;2.73;;;;;;;22.89;88.65;100711.63;5038788;28;20261;-63
2022/10/16 11:01:39;;;;;;;5.68;2.35;;;;;;;24.52;78.23;100706.22;5036679;28;20211;-65
2022/10/16 11:04:29;;;;;;;4.10;2.30;;;;;;;25.11;69.78;100698.94;5041634;28;20219;-63
2022/10/16 11:07:00;;;;;;;5.53;2.00;;;;;;;24.36;71.92;100717.75;5044403;28;20270;-62
2022/10/16 11:09:34;;;;;;;3.83;1.95;;;;;;;23.92;75.30;100713.56;5035234;28;20261;-64
2022/10/16 11:12:07;;;;;;;7.38;2.58;;;;;;;23.50;78.92;100710.78;5033320;28;20232;-63
2022/10/16 11:14:39;;;;;;;4.32;2.05;;;;;;;23.22;80.87;100721.25;5034840;28;20581;-63
2022/10/16 11:17:13;;;;;;;4.53;2.10;;;;;;;22.83;81.62;100717.94;5031612;28;20219;-63
2022/10/16 11:19:47;;;;;;;7.43;2.50;;;;;;;22.46;82.77;100716.97;5032824;28;20204;-63
2022/10/16 11:22:20;;;;;;;5.03;2.90;;;;;;;22.16;85.14;100724.03;5033975;28;20614;-63
2022/10/16 11:24:54;;;;;;;4.80;3.13;;;;;;;21.97;87.24;100733.06;5036891;28;20231;-62
2022/10/16 11:27:39;;;;;;;5.32;2.90;;;;;;;21.96;88.32;100729.53;5042423;28;20237;-63
2022/10/16 11:30:16;;;;;;;4.60;2.28;;;;;;;21.93;87.01;100724.56;5038678;28;20259;-63
2022/10/16 11:32:55;;;;;;;10.65;3.20;;;;;;;22.12;86.52;100704.75;5036440;28;20212;-62